sensor_id;sensor_type;location;lat;lon;timestamp;pressure;altitude;pressure_sealevel;temperature;humidity
7668;BME280;3876;42.204;24.686;2023-08-06T00:02:15;98041.78;;;25.81;100.00
7668;BME280;3876;42.204;24.686;2023-08-06T00:04:41;98046.69;;;25.84;100.00
7668;BME280;3876;42.204;24.686;2023-08-06T00:07:09;98038.25;;;25.89;100.00
7668;BME280;3876;42.204;24.686;2023-08-06T00:09:36;98034.03;;;25.88;100.00
7668;BME280;3876;42.204;24.686;2023-08-06T00:12:04;98040.38;;;25.93;100.00
7668;BME280;3876;42.204;24.686;2023-08-06T00:14:31;98022.88;;;25.86;100.00
7668;BME280;3876;42.204;24.686;2023-08-06T00:16:57;98025.97;;;25.89;100.00
7668;BME280;3876;42.204;24.686;2023-08-06T00:19:24;98020.44;;;25.84;100.00
7668;BME280;3876;42.204;24.686;2023-08-06T00:21:51;98024.78;;;25.69;100.00
7668;BME280;3876;42.204;24.686;2023-08-06T00:24:19;98017.44;;;25.65;100.00
7668;BME280;3876;42.204;24.686;2023-08-06T00:26:46;98014.88;;;25.56;100.00
7668;BME280;3876;42.204;24.686;2023-08-06T00:29:13;98011.38;;;25.64;100.00
7668;BME280;3876;42.204;24.686;2023-08-06T00:31:39;98011.41;;;25.56;100.00
7668;BME280;3876;42.204;24.686;2023-08-06T00:34:06;98032.41;;;25.56;100.00
7668;BME280;3876;42.204;24.686;2023-08-06T00:36:33;98040.13;;;25.57;100.00
7668;BME280;3876;42.204;24.686;2023-08-06T00:39:00;98038.97;;;25.60;100.00
7668;BME280;3876;42.204;24.686;2023-08-06T00:41:28;98035.63;;;25.66;100.00
7668;BME280;3876;42.204;24.686;2023-08-06T00:43:55;98018.94;;;25.59;100.00
7668;BME280;3876;42.204;24.686;2023-08-06T00:46:21;98005.50;;;25.62;100.00
7668;BME280;3876;42.204;24.686;2023-08-06T00:48:49;98016.78;;;25.63;100.00
7668;BME280;3876;42.204;24.686;2023-08-06T00:51:17;98008.16;;;25.54;100.00
7668;BME280;3876;42.204;24.686;2023-08-06T00:53:43;97989.00;;;25.45;100.00
7668;BME280;3876;42.204;24.686;2023-08-06T00:56:10;98000.94;;;25.56;100.00
7668;BME280;3876;42.204;24.686;2023-08-06T00:58:39;98001.13;;;25.54;100.00
7668;BME280;3876;42.204;24.686;2023-08-06T01:01:06;97997.03;;;25.52;100.00
7668;BME280;3876;42.204;24.686;2023-08-06T01:03:32;97981.75;;;25.25;100.00
7668;BME280;3876;42.204;24.686;2023-08-06T01:06:00;97989.25;;;25.36;100.00
7668;BME280;3876;42.204;24.686;2023-08-06T01:08:31;97998.50;;;25.46;100.00
7668;BME280;3876;42.204;24.686;2023-08-06T01:11:08;97994.41;;;25.52;100.00
7668;BME280;3876;42.204;24.686;2023-08-06T01:13:42;97989.47;;;25.49;100.00
7668;BME280;3876;42.204;24.686;2023-08-06T01:16:10;97992.63;;;25.44;100.00
7668;BME280;3876;42.204;24.686;2023-08-06T01:18:37;97995.09;;;25.46;100.00
7668;BME280;3876;42.204;24.686;2023-08-06T01:21:06;97994.97;;;25.39;100.00
7668;BME280;3876;42.204;24.686;2023-08-06T01:23:33;97998.09;;;25.35;100.00
7668;BME280;3876;42.204;24.686;2023-08-06T01:26:06;97995.19;;;25.30;100.00
7668;BME280;3876;42.204;24.686;2023-08-06T01:28:40;98004.97;;;25.36;100.00
7668;BME280;3876;42.204;24.686;2023-08-06T01:31:15;98012.78;;;25.44;100.00
7668;BME280;3876;42.204;24.686;2023-08-06T01:33:45;98005.72;;;25.52;100.00
7668;BME280;3876;42.204;24.686;2023-08-06T01:36:15;97993.59;;;25.51;100.00
7668;BME280;3876;42.204;24.686;2023-08-06T01:38:43;97989.63;;;25.55;100.00
7668;BME280;3876;42.204;24.686;2023-08-06T01:41:10;97974.69;;;25.56;100.00
7668;BME280;3876;42.204;24.686;2023-08-06T01:43:37;97952.06;;;25.55;100.00
7668;BME280;3876;42.204;24.686;2023-08-06T01:46:03;97935.38;;;25.48;100.00
7668;BME280;3876;42.204;24.686;2023-08-06T01:48:30;97936.41;;;25.39;100.00
7668;BME280;3876;42.204;24.686;2023-08-06T01:50:57;97942.38;;;25.33;100.00
7668;BME280;3876;42.204;24.686;2023-08-06T01:53:25;97929.88;;;25.35;100.00
7668;BME280;3876;42.204;24.686;2023-08-06T01:55:52;97958.47;;;25.30;100.00
7668;BME280;3876;42.204;24.686;2023-08-06T01:58:18;97970.22;;;25.34;100.00
7668;BME280;3876;42.204;24.686;2023-08-06T02:00:45;97979.72;;;25.35;100.00
7668;BME280;3876;42.204;24.686;2023-08-06T02:03:12;97983.09;;;25.43;100.00
7668;BME280;3876;42.204;24.686;2023-08-06T02:05:39;97992.78;;;25.51;100.00
7668;BME280;3876;42.204;24.686;2023-08-06T02:08:06;97998.97;;;25.58;100.00
7668;BME280;3876;42.204;24.686;2023-08-06T02:10:34;97992.88;;;25.57;100.00
7668;BME280;3876;42.204;24.686;2023-08-06T02:13:01;97975.03;;;25.53;100.00
7668;BME280;3876;42.204;24.686;2023-08-06T02:15:28;97968.50;;;25.49;100.00
7668;BME280;3876;42.204;24.686;2023-08-06T02:17:54;97985.53;;;25.53;100.00
7668;BME280;3876;42.204;24.686;2023-08-06T02:20:21;97987.03;;;25.47;100.00
7668;BME280;3876;42.204;24.686;2023-08-06T02:22:48;97973.75;;;25.49;100.00
7668;BME280;3876;42.204;24.686;2023-08-06T02:25:15;97964.38;;;25.46;100.00
7668;BME280;3876;42.204;24.686;2023-08-06T02:27:43;97964.63;;;25.37;100.00
7668;BME280;3876;42.204;24.686;2023-08-06T02:30:10;97974.09;;;25.46;100.00
7668;BME280;3876;42.204;24.686;2023-08-06T02:32:37;97964.88;;;25.50;100.00
7668;BME280;3876;42.204;24.686;2023-08-06T02:35:04;97976.25;;;25.42;100.00
7668;BME280;3876;42.204;24.686;2023-08-06T02:37:33;97971.78;;;25.51;100.00
7668;BME280;3876;42.204;24.686;2023-08-06T02:40:00;97965.22;;;25.47;100.00
7668;BME280;3876;42.204;24.686;2023-08-06T02:42:27;97957.06;;;25.42;100.00
7668;BME280;3876;42.204;24.686;2023-08-06T02:44:55;97956.47;;;25.32;100.00
7668;BME280;3876;42.204;24.686;2023-08-06T02:47:22;97956.69;;;25.22;100.00
7668;BME280;3876;42.204;24.686;2023-08-06T02:49:49;97957.16;;;25.26;100.00
7668;BME280;3876;42.204;24.686;2023-08-06T02:52:16;97957.06;;;25.11;100.00
7668;BME280;3876;42.204;24.686;2023-08-06T02:54:43;97955.75;;;25.15;100.00
7668;BME280;3876;42.204;24.686;2023-08-06T02:57:09;97951.53;;;25.06;100.00
7668;BME280;3876;42.204;24.686;2023-08-06T02:59:36;97962.31;;;25.11;100.00
7668;BME280;3876;42.204;24.686;2023-08-06T03:02:05;97954.44;;;25.11;100.00
7668;BME280;3876;42.204;24.686;2023-08-06T03:04:32;97958.56;;;25.14;100.00
7668;BME280;3876;42.204;24.686;2023-08-06T03:06:58;97959.88;;;25.10;100.00
7668;BME280;3876;42.204;24.686;2023-08-06T03:09:25;97961.81;;;25.16;100.00
7668;BME280;3876;42.204;24.686;2023-08-06T03:11:52;97956.56;;;25.16;100.00
7668;BME280;3876;42.204;24.686;2023-08-06T03:14:19;97952.28;;;25.23;100.00
7668;BME280;3876;42.204;24.686;2023-08-06T03:16:45;97968.59;;;25.33;100.00
7668;BME280;3876;42.204;24.686;2023-08-06T03:19:13;97959.84;;;25.40;100.00
7668;BME280;3876;42.204;24.686;2023-08-06T03:21:40;97960.03;;;25.39;100.00
7668;BME280;3876;42.204;24.686;2023-08-06T03:24:07;97950.72;;;25.36;100.00
7668;BME280;3876;42.204;24.686;2023-08-06T03:26:34;97952.28;;;25.23;100.00
7668;BME280;3876;42.204;24.686;2023-08-06T03:29:00;97955.53;;;25.25;100.00
7668;BME280;3876;42.204;24.686;2023-08-06T03:31:27;97967.31;;;25.29;100.00
7668;BME280;3876;42.204;24.686;2023-08-06T03:33:54;97964.69;;;25.29;100.00
7668;BME280;3876;42.204;24.686;2023-08-06T03:36:22;97964.69;;;25.29;100.00
7668;BME280;3876;42.204;24.686;2023-08-06T03:38:49;97978.63;;;25.29;100.00
7668;BME280;3876;42.204;24.686;2023-08-06T03:41:15;97975.81;;;25.31;100.00
7668;BME280;3876;42.204;24.686;2023-08-06T03:43:42;97965.31;;;25.31;100.00
7668;BME280;3876;42.204;24.686;2023-08-06T03:46:09;97959.13;;;25.24;100.00
7668;BME280;3876;42.204;24.686;2023-08-06T03:48:36;97965.41;;;25.15;100.00
7668;BME280;3876;42.204;24.686;2023-08-06T03:51:02;97965.06;;;25.18;100.00
7668;BME280;3876;42.204;24.686;2023-08-06T03:53:30;97958.22;;;25.17;100.00
7668;BME280;3876;42.204;24.686;2023-08-06T03:55:57;97958.22;;;25.17;100.00
7668;BME280;3876;42.204;24.686;2023-08-06T03:58:25;97960.16;;;25.15;100.00
7668;BME280;3876;42.204;24.686;2023-08-06T04:00:58;97975.41;;;25.19;100.00
7668;BME280;3876;42.204;24.686;2023-08-06T04:03:24;97981.75;;;25.25;100.00
7668;BME280;3876;42.204;24.686;2023-08-06T04:05:51;97977.50;;;25.24;100.00
7668;BME280;3876;42.204;24.686;2023-08-06T04:08:18;97989.13;;;25.29;100.00
7668;BME280;3876;42.204;24.686;2023-08-06T04:10:49;97972.25;;;25.24;100.00
7668;BME280;3876;42.204;24.686;2023-08-06T04:13:16;97973.31;;;25.37;100.00
7668;BME280;3876;42.204;24.686;2023-08-06T04:15:43;97977.56;;;25.38;100.00
7668;BME280;3876;42.204;24.686;2023-08-06T04:18:09;97967.38;;;25.43;100.00
7668;BME280;3876;42.204;24.686;2023-08-06T04:20:42;97982.91;;;25.53;100.00
7668;BME280;3876;42.204;24.686;2023-08-06T04:23:10;97987.84;;;25.48;100.00
7668;BME280;3876;42.204;24.686;2023-08-06T04:25:36;97987.81;;;25.56;100.00
7668;BME280;3876;42.204;24.686;2023-08-06T04:28:05;97997.94;;;25.59;100.00
7668;BME280;3876;42.204;24.686;2023-08-06T04:30:31;97995.44;;;25.66;100.00
7668;BME280;3876;42.204;24.686;2023-08-06T04:32:58;97991.69;;;25.68;100.00
7668;BME280;3876;42.204;24.686;2023-08-06T04:35:25;98006.50;;;25.61;100.00
7668;BME280;3876;42.204;24.686;2023-08-06T04:37:52;98011.97;;;25.51;100.00
7668;BME280;3876;42.204;24.686;2023-08-06T04:40:18;98002.22;;;25.60;100.00
7668;BME280;3876;42.204;24.686;2023-08-06T04:42:45;97994.66;;;25.65;100.00
7668;BME280;3876;42.204;24.686;2023-08-06T04:45:13;97995.91;;;25.69;100.00
7668;BME280;3876;42.204;24.686;2023-08-06T04:47:40;97981.44;;;25.73;100.00
7668;BME280;3876;42.204;24.686;2023-08-06T04:50:07;97974.22;;;25.75;100.00
7668;BME280;3876;42.204;24.686;2023-08-06T04:52:34;97977.88;;;25.66;100.00
7668;BME280;3876;42.204;24.686;2023-08-06T04:55:01;97989.75;;;25.62;100.00
7668;BME280;3876;42.204;24.686;2023-08-06T04:57:29;98000.75;;;25.57;100.00
7668;BME280;3876;42.204;24.686;2023-08-06T04:59:55;97991.44;;;25.55;100.00
7668;BME280;3876;42.204;24.686;2023-08-06T05:02:23;97979.94;;;25.56;100.00
7668;BME280;3876;42.204;24.686;2023-08-06T05:04:50;97974.34;;;25.59;100.00
7668;BME280;3876;42.204;24.686;2023-08-06T05:07:17;97984.16;;;25.65;100.00
7668;BME280;3876;42.204;24.686;2023-08-06T05:09:44;97996.97;;;25.60;100.00
7668;BME280;3876;42.204;24.686;2023-08-06T05:12:11;98001.16;;;25.69;100.00
7668;BME280;3876;42.204;24.686;2023-08-06T05:14:37;97992.59;;;25.75;100.00
7668;BME280;3876;42.204;24.686;2023-08-06T05:17:04;97993.72;;;25.81;100.00
7668;BME280;3876;42.204;24.686;2023-08-06T05:19:32;97989.19;;;25.89;100.00
7668;BME280;3876;42.204;24.686;2023-08-06T05:21:59;97980.59;;;25.95;100.00
7668;BME280;3876;42.204;24.686;2023-08-06T05:24:26;97988.94;;;25.99;100.00
7668;BME280;3876;42.204;24.686;2023-08-06T05:26:53;97996.66;;;26.00;100.00
7668;BME280;3876;42.204;24.686;2023-08-06T05:29:19;97989.16;;;25.97;100.00
7668;BME280;3876;42.204;24.686;2023-08-06T05:31:46;97981.53;;;26.02;100.00
7668;BME280;3876;42.204;24.686;2023-08-06T05:34:13;97985.22;;;25.93;100.00
7668;BME280;3876;42.204;24.686;2023-08-06T05:36:41;97989.53;;;25.72;100.00
7668;BME280;3876;42.204;24.686;2023-08-06T05:39:08;97960.69;;;25.64;100.00
7668;BME280;3876;42.204;24.686;2023-08-06T05:41:34;97986.00;;;25.79;100.00
7668;BME280;3876;42.204;24.686;2023-08-06T05:44:01;97983.91;;;25.75;100.00
7668;BME280;3876;42.204;24.686;2023-08-06T05:46:28;97974.75;;;25.71;100.00
7668;BME280;3876;42.204;24.686;2023-08-06T05:48:55;97974.09;;;25.46;100.00
7668;BME280;3876;42.204;24.686;2023-08-06T05:51:22;97964.09;;;25.19;100.00
7668;BME280;3876;42.204;24.686;2023-08-06T05:53:50;97952.44;;;25.21;100.00
7668;BME280;3876;42.204;24.686;2023-08-06T05:56:17;97946.78;;;25.32;100.00
7668;BME280;3876;42.204;24.686;2023-08-06T05:58:43;97968.72;;;25.39;100.00
7668;BME280;3876;42.204;24.686;2023-08-06T06:01:11;97952.63;;;25.20;100.00
7668;BME280;3876;42.204;24.686;2023-08-06T06:03:38;97955.88;;;25.22;100.00
7668;BME280;3876;42.204;24.686;2023-08-06T06:06:05;97954.31;;;25.04;100.00
7668;BME280;3876;42.204;24.686;2023-08-06T06:08:32;97952.22;;;25.00;100.00
7668;BME280;3876;42.204;24.686;2023-08-06T06:11:00;97915.81;;;24.74;100.00
7668;BME280;3876;42.204;24.686;2023-08-06T06:13:27;97946.16;;;24.99;100.00
7668;BME280;3876;42.204;24.686;2023-08-06T06:15:54;97959.22;;;25.07;100.00
7668;BME280;3876;42.204;24.686;2023-08-06T06:18:21;97965.06;;;25.18;100.00
7668;BME280;3876;42.204;24.686;2023-08-06T06:20:48;97964.69;;;25.29;100.00
7668;BME280;3876;42.204;24.686;2023-08-06T06:23:15;97967.81;;;25.24;100.00
7668;BME280;3876;42.204;24.686;2023-08-06T06:25:42;97960.78;;;25.25;100.00
7668;BME280;3876;42.204;24.686;2023-08-06T06:28:11;97966.19;;;25.23;100.00
7668;BME280;3876;42.204;24.686;2023-08-06T06:30:37;97974.06;;;25.23;100.00
7668;BME280;3876;42.204;24.686;2023-08-06T06:33:04;97966.56;;;25.20;100.00
7668;BME280;3876;42.204;24.686;2023-08-06T06:35:31;97977.44;;;25.32;100.00
7668;BME280;3876;42.204;24.686;2023-08-06T06:37:58;97975.13;;;25.37;100.00
7668;BME280;3876;42.204;24.686;2023-08-06T06:40:25;97979.66;;;25.43;100.00
7668;BME280;3876;42.204;24.686;2023-08-06T06:42:52;97978.41;;;25.39;100.00
7668;BME280;3876;42.204;24.686;2023-08-06T06:45:20;97966.13;;;25.31;100.00
7668;BME280;3876;42.204;24.686;2023-08-06T06:47:47;97976.59;;;25.39;100.00
7668;BME280;3876;42.204;24.686;2023-08-06T06:50:13;97970.53;;;25.39;100.00
7668;BME280;3876;42.204;24.686;2023-08-06T06:52:40;97976.69;;;25.54;100.00
7668;BME280;3876;42.204;24.686;2023-08-06T06:55:08;97974.44;;;25.66;100.00
7668;BME280;3876;42.204;24.686;2023-08-06T06:57:34;97978.91;;;25.65;100.00
7668;BME280;3876;42.204;24.686;2023-08-06T07:00:01;97975.25;;;25.66;100.00
7668;BME280;3876;42.204;24.686;2023-08-06T07:02:29;97978.09;;;25.65;100.00
7668;BME280;3876;42.204;24.686;2023-08-06T07:04:56;97982.16;;;25.67;100.00
7668;BME280;3876;42.204;24.686;2023-08-06T07:07:23;97984.94;;;25.66;100.00
7668;BME280;3876;42.204;24.686;2023-08-06T07:09:50;97985.88;;;25.50;100.00
7668;BME280;3876;42.204;24.686;2023-08-06T07:12:16;97989.59;;;25.33;100.00
7668;BME280;3876;42.204;24.686;2023-08-06T07:14:43;97993.88;;;25.26;100.00
7668;BME280;3876;42.204;24.686;2023-08-06T07:17:10;97995.50;;;25.27;100.00
7668;BME280;3876;42.204;24.686;2023-08-06T07:19:38;98005.91;;;25.20;100.00
7668;BME280;3876;42.204;24.686;2023-08-06T07:22:05;98010.13;;;25.21;100.00
7668;BME280;3876;42.204;24.686;2023-08-06T07:24:32;98007.28;;;25.31;100.00
7668;BME280;3876;42.204;24.686;2023-08-06T07:26:59;98019.09;;;25.35;100.00
7668;BME280;3876;42.204;24.686;2023-08-06T07:29:26;98023.38;;;25.28;100.00
7668;BME280;3876;42.204;24.686;2023-08-06T07:31:53;98024.06;;;25.22;100.00
7668;BME280;3876;42.204;24.686;2023-08-06T07:34:21;98022.06;;;25.24;100.00
7668;BME280;3876;42.204;24.686;2023-08-06T07:36:49;98024.53;;;25.25;100.00
7668;BME280;3876;42.204;24.686;2023-08-06T07:39:15;98021.53;;;25.36;100.00
7668;BME280;3876;42.204;24.686;2023-08-06T07:41:43;98010.34;;;25.42;100.00
7668;BME280;3876;42.204;24.686;2023-08-06T07:44:11;98006.53;;;25.53;100.00
7668;BME280;3876;42.204;24.686;2023-08-06T07:46:38;97989.66;;;25.47;100.00
7668;BME280;3876;42.204;24.686;2023-08-06T07:49:05;97996.03;;;25.53;100.00
7668;BME280;3876;42.204;24.686;2023-08-06T07:51:32;97991.72;;;25.60;100.00
7668;BME280;3876;42.204;24.686;2023-08-06T07:54:00;97989.06;;;25.68;100.00
7668;BME280;3876;42.204;24.686;2023-08-06T07:56:26;98001.03;;;25.85;100.00
7668;BME280;3876;42.204;24.686;2023-08-06T07:58:53;98005.94;;;25.88;100.00
7668;BME280;3876;42.204;24.686;2023-08-06T08:01:21;98006.59;;;25.90;100.00
7668;BME280;3876;42.204;24.686;2023-08-06T08:03:48;98015.91;;;25.93;100.00
7668;BME280;3876;42.204;24.686;2023-08-06T08:06:15;98011.19;;;25.88;100.00
7668;BME280;3876;42.204;24.686;2023-08-06T08:08:42;98017.72;;;25.92;100.00
7668;BME280;3876;42.204;24.686;2023-08-06T08:11:10;98017.69;;;26.00;100.00
7668;BME280;3876;42.204;24.686;2023-08-06T08:13:37;98007.53;;;26.12;100.00
7668;BME280;3876;42.204;24.686;2023-08-06T08:16:04;98002.44;;;26.19;100.00
7668;BME280;3876;42.204;24.686;2023-08-06T08:18:30;98008.59;;;26.26;100.00
7668;BME280;3876;42.204;24.686;2023-08-06T08:20:57;98001.34;;;26.28;100.00
7668;BME280;3876;42.204;24.686;2023-08-06T08:23:24;98013.88;;;26.40;100.00
7668;BME280;3876;42.204;24.686;2023-08-06T08:25:51;98001.91;;;26.38;100.00
7668;BME280;3876;42.204;24.686;2023-08-06T08:28:19;97992.38;;;26.37;100.00
7668;BME280;3876;42.204;24.686;2023-08-06T08:30:46;98010.09;;;26.43;100.00
7668;BME280;3876;42.204;24.686;2023-08-06T08:33:13;98011.16;;;26.34;100.00
7668;BME280;3876;42.204;24.686;2023-08-06T08:35:39;98014.13;;;26.31;100.00
7668;BME280;3876;42.204;24.686;2023-08-06T08:38:06;98011.69;;;26.29;100.00
7668;BME280;3876;42.204;24.686;2023-08-06T08:40:38;98016.50;;;26.26;100.00
7668;BME280;3876;42.204;24.686;2023-08-06T08:43:09;98000.13;;;26.16;100.00
7668;BME280;3876;42.204;24.686;2023-08-06T08:45:39;98011.59;;;26.00;100.00
7668;BME280;3876;42.204;24.686;2023-08-06T08:48:06;98005.69;;;25.98;100.00
7668;BME280;3876;42.204;24.686;2023-08-06T08:50:33;98013.19;;;25.86;100.00
7668;BME280;3876;42.204;24.686;2023-08-06T08:53:00;98000.31;;;25.91;100.00
7668;BME280;3876;42.204;24.686;2023-08-06T08:55:27;98008.78;;;26.01;100.00
7668;BME280;3876;42.204;24.686;2023-08-06T08:57:54;98002.63;;;26.17;100.00
7668;BME280;3876;42.204;24.686;2023-08-06T09:00:21;98003.00;;;26.29;100.00
7668;BME280;3876;42.204;24.686;2023-08-06T09:02:49;98002.56;;;26.54;100.00
7668;BME280;3876;42.204;24.686;2023-08-06T09:05:18;97992.53;;;26.87;100.00
7668;BME280;3876;42.204;24.686;2023-08-06T09:07:48;97987.22;;;27.17;100.00
7668;BME280;3876;42.204;24.686;2023-08-06T09:10:16;97982.75;;;27.53;100.00
7668;BME280;3876;42.204;24.686;2023-08-06T09:12:45;97975.88;;;27.73;97.38
7668;BME280;3876;42.204;24.686;2023-08-06T09:15:13;97977.47;;;27.95;96.73
7668;BME280;3876;42.204;24.686;2023-08-06T09:17:39;97970.44;;;28.24;96.99
7668;BME280;3876;42.204;24.686;2023-08-06T09:20:12;97975.50;;;28.53;93.04
7668;BME280;3876;42.204;24.686;2023-08-06T09:22:39;97974.84;;;28.79;94.54
7668;BME280;3876;42.204;24.686;2023-08-06T09:25:07;97968.41;;;28.94;87.14
7668;BME280;3876;42.204;24.686;2023-08-06T09:27:35;97960.34;;;29.15;84.27
7668;BME280;3876;42.204;24.686;2023-08-06T09:30:03;97965.03;;;29.13;79.54
7668;BME280;3876;42.204;24.686;2023-08-06T09:32:44;97970.31;;;29.13;80.87
7668;BME280;3876;42.204;24.686;2023-08-06T09:35:16;97977.81;;;29.16;78.14
7668;BME280;3876;42.204;24.686;2023-08-06T09:37:43;97981.03;;;29.12;72.94
7668;BME280;3876;42.204;24.686;2023-08-06T09:40:26;97987.97;;;29.13;77.00
7668;BME280;3876;42.204;24.686;2023-08-06T09:42:54;97983.50;;;29.13;78.64
7668;BME280;3876;42.204;24.686;2023-08-06T09:45:21;97981.88;;;29.12;79.67
7668;BME280;3876;42.204;24.686;2023-08-06T09:47:48;97963.16;;;29.01;79.71
7668;BME280;3876;42.204;24.686;2023-08-06T09:50:18;97981.03;;;29.12;80.03
7668;BME280;3876;42.204;24.686;2023-08-06T09:52:46;97969.97;;;29.30;80.37
7668;BME280;3876;42.204;24.686;2023-08-06T09:55:14;97964.09;;;29.47;80.38
7668;BME280;3876;42.204;24.686;2023-08-06T09:57:41;97961.72;;;29.72;77.99
7668;BME280;3876;42.204;24.686;2023-08-06T10:00:09;97967.84;;;29.92;76.24
7668;BME280;3876;42.204;24.686;2023-08-06T10:02:37;97957.66;;;30.15;78.78
7668;BME280;3876;42.204;24.686;2023-08-06T10:05:05;97955.22;;;30.34;76.55
7668;BME280;3876;42.204;24.686;2023-08-06T10:07:33;97967.81;;;30.45;74.26
7668;BME280;3876;42.204;24.686;2023-08-06T10:10:01;97962.06;;;30.61;73.22
7668;BME280;3876;42.204;24.686;2023-08-06T10:12:34;97953.47;;;30.79;69.77
7668;BME280;3876;42.204;24.686;2023-08-06T10:15:04;97951.38;;;31.00;70.54
7668;BME280;3876;42.204;24.686;2023-08-06T10:17:34;97947.88;;;31.06;64.43
7668;BME280;3876;42.204;24.686;2023-08-06T10:20:03;97925.31;;;30.97;67.60
7668;BME280;3876;42.204;24.686;2023-08-06T10:22:33;97941.16;;;31.10;63.67
7668;BME280;3876;42.204;24.686;2023-08-06T10:25:01;97926.84;;;31.18;65.57
7668;BME280;3876;42.204;24.686;2023-08-06T10:27:31;97919.03;;;31.30;66.47
7668;BME280;3876;42.204;24.686;2023-08-06T10:30:23;97920.47;;;31.57;66.46
7668;BME280;3876;42.204;24.686;2023-08-06T10:32:51;97923.22;;;31.75;64.09
7668;BME280;3876;42.204;24.686;2023-08-06T10:35:31;97922.19;;;31.76;61.62
7668;BME280;3876;42.204;24.686;2023-08-06T10:38:10;97923.38;;;31.80;60.21
7668;BME280;3876;42.204;24.686;2023-08-06T10:40:39;97928.13;;;31.71;60.80
7668;BME280;3876;42.204;24.686;2023-08-06T10:43:07;97927.75;;;31.68;59.79
7668;BME280;3876;42.204;24.686;2023-08-06T10:45:36;97928.28;;;31.52;58.66
7668;BME280;3876;42.204;24.686;2023-08-06T10:48:04;97931.50;;;31.54;58.56
7668;BME280;3876;42.204;24.686;2023-08-06T10:50:32;97936.03;;;31.47;59.47
7668;BME280;3876;42.204;24.686;2023-08-06T10:53:04;97952.44;;;31.31;56.35
7668;BME280;3876;42.204;24.686;2023-08-06T10:55:32;97939.88;;;31.19;57.81
7668;BME280;3876;42.204;24.686;2023-08-06T10:57:59;97952.59;;;31.36;61.39
7668;BME280;3876;42.204;24.686;2023-08-06T11:00:26;97953.66;;;31.66;60.79
7668;BME280;3876;42.204;24.686;2023-08-06T11:02:53;97952.91;;;31.84;57.53
7668;BME280;3876;42.204;24.686;2023-08-06T11:05:21;97947.94;;;31.94;53.71
7668;BME280;3876;42.204;24.686;2023-08-06T11:07:48;97950.28;;;32.08;55.56
7668;BME280;3876;42.204;24.686;2023-08-06T11:10:16;97953.09;;;32.13;52.94
7668;BME280;3876;42.204;24.686;2023-08-06T11:12:45;97948.53;;;32.20;55.07
7668;BME280;3876;42.204;24.686;2023-08-06T11:15:11;97956.44;;;32.27;51.14
7668;BME280;3876;42.204;24.686;2023-08-06T11:17:40;97964.00;;;32.23;51.42
7668;BME280;3876;42.204;24.686;2023-08-06T11:20:09;97963.19;;;32.23;50.96
7668;BME280;3876;42.204;24.686;2023-08-06T11:22:37;97941.31;;;32.28;51.95
7668;BME280;3876;42.204;24.686;2023-08-06T11:25:05;97952.00;;;32.39;50.43
7668;BME280;3876;42.204;24.686;2023-08-06T11:27:32;97961.91;;;32.50;50.90
7668;BME280;3876;42.204;24.686;2023-08-06T11:30:01;97972.03;;;32.60;50.52
7668;BME280;3876;42.204;24.686;2023-08-06T11:32:27;97964.25;;;32.76;52.10
7668;BME280;3876;42.204;24.686;2023-08-06T11:34:55;97966.59;;;32.73;49.76
7668;BME280;3876;42.204;24.686;2023-08-06T11:37:22;97970.78;;;32.62;48.96
7668;BME280;3876;42.204;24.686;2023-08-06T11:39:51;97976.22;;;32.67;47.95
7668;BME280;3876;42.204;24.686;2023-08-06T11:42:18;97962.44;;;32.77;47.80
7668;BME280;3876;42.204;24.686;2023-08-06T11:44:45;97960.66;;;32.89;47.81
7668;BME280;3876;42.204;24.686;2023-08-06T11:47:15;97968.44;;;33.02;47.43
7668;BME280;3876;42.204;24.686;2023-08-06T11:49:44;97959.16;;;32.93;46.65
7668;BME280;3876;42.204;24.686;2023-08-06T11:52:14;97961.06;;;33.04;46.88
7668;BME280;3876;42.204;24.686;2023-08-06T11:54:41;97970.44;;;33.07;44.44
7668;BME280;3876;42.204;24.686;2023-08-06T11:57:08;97966.34;;;33.11;42.00
7668;BME280;3876;42.204;24.686;2023-08-06T11:59:36;97967.28;;;33.16;42.65
7668;BME280;3876;42.204;24.686;2023-08-06T12:02:04;97967.06;;;33.18;42.67
7668;BME280;3876;42.204;24.686;2023-08-06T12:05:00;97971.47;;;33.06;41.50
7668;BME280;3876;42.204;24.686;2023-08-06T12:07:29;97971.25;;;33.07;43.90
7668;BME280;3876;42.204;24.686;2023-08-06T12:09:56;97979.75;;;33.16;47.13
7668;BME280;3876;42.204;24.686;2023-08-06T12:12:23;97974.22;;;33.17;43.79
7668;BME280;3876;42.204;24.686;2023-08-06T12:14:50;97978.56;;;33.42;45.65
7668;BME280;3876;42.204;24.686;2023-08-06T12:17:17;97971.47;;;33.54;45.75
7668;BME280;3876;42.204;24.686;2023-08-06T12:19:45;97970.13;;;33.63;44.57
7668;BME280;3876;42.204;24.686;2023-08-06T12:22:14;97977.66;;;33.48;40.78
7668;BME280;3876;42.204;24.686;2023-08-06T12:24:41;97976.25;;;33.34;42.81
7668;BME280;3876;42.204;24.686;2023-08-06T12:27:08;97973.06;;;33.25;42.37
7668;BME280;3876;42.204;24.686;2023-08-06T12:29:35;97969.41;;;33.08;42.01
7668;BME280;3876;42.204;24.686;2023-08-06T12:32:02;97964.47;;;32.93;42.05
7668;BME280;3876;42.204;24.686;2023-08-06T12:34:29;97968.78;;;32.76;43.75
7668;BME280;3876;42.204;24.686;2023-08-06T12:36:57;97971.69;;;32.50;41.84
7668;BME280;3876;42.204;24.686;2023-08-06T12:39:24;97960.63;;;32.35;43.63
7668;BME280;3876;42.204;24.686;2023-08-06T12:41:54;97965.28;;;32.39;45.62
7668;BME280;3876;42.204;24.686;2023-08-06T12:44:21;97957.69;;;32.43;43.53
7668;BME280;3876;42.204;24.686;2023-08-06T12:46:47;97960.03;;;32.51;45.00
7668;BME280;3876;42.204;24.686;2023-08-06T12:49:14;97963.13;;;32.72;44.88
7668;BME280;3876;42.204;24.686;2023-08-06T12:51:41;97968.91;;;32.81;43.91
7668;BME280;3876;42.204;24.686;2023-08-06T12:54:09;97970.22;;;32.90;43.26
7668;BME280;3876;42.204;24.686;2023-08-06T12:56:36;97974.44;;;32.98;45.78
7668;BME280;3876;42.204;24.686;2023-08-06T12:59:03;97972.88;;;33.08;42.76
7668;BME280;3876;42.204;24.686;2023-08-06T13:01:30;97992.06;;;33.10;41.82
7668;BME280;3876;42.204;24.686;2023-08-06T13:03:58;97977.47;;;33.01;42.20
7668;BME280;3876;42.204;24.686;2023-08-06T13:06:25;97979.66;;;33.04;44.04